sensor_id;sensor_type;location;lat;lon;timestamp;temperature;humidity
3312;DHT22;1668;49.648;8.570;2024-01-11T00:01:08;-3.60;99.90
3312;DHT22;1668;49.648;8.570;2024-01-11T00:03:36;-3.60;99.90
3312;DHT22;1668;49.648;8.570;2024-01-11T00:06:03;-3.70;99.90
3312;DHT22;1668;49.648;8.570;2024-01-11T00:08:30;-3.60;99.90
3312;DHT22;1668;49.648;8.570;2024-01-11T00:10:57;-3.70;99.90
3312;DHT22;1668;49.648;8.570;2024-01-11T00:13:24;-3.70;99.90
3312;DHT22;1668;49.648;8.570;2024-01-11T00:15:52;-3.70;99.90
3312;DHT22;1668;49.648;8.570;2024-01-11T00:18:19;-3.70;99.90
3312;DHT22;1668;49.648;8.570;2024-01-11T00:20:47;-3.80;99.90
3312;DHT22;1668;49.648;8.570;2024-01-11T00:23:14;-3.80;99.90
3312;DHT22;1668;49.648;8.570;2024-01-11T00:25:41;-3.80;99.90
3312;DHT22;1668;49.648;8.570;2024-01-11T00:28:08;-3.80;1.00
3312;DHT22;1668;49.648;8.570;2024-01-11T00:30:35;-3.80;99.90
3312;DHT22;1668;49.648;8.570;2024-01-11T00:33:04;-3.80;99.90
3312;DHT22;1668;49.648;8.570;2024-01-11T00:35:32;-3.80;99.90
3312;DHT22;1668;49.648;8.570;2024-01-11T00:37:59;-3.80;99.90
3312;DHT22;1668;49.648;8.570;2024-01-11T00:40:26;-3.90;99.90
3312;DHT22;1668;49.648;8.570;2024-01-11T00:42:52;-3.90;1.00
3312;DHT22;1668;49.648;8.570;2024-01-11T00:45:19;-3.90;1.00
3312;DHT22;1668;49.648;8.570;2024-01-11T00:47:46;-3.90;1.00
3312;DHT22;1668;49.648;8.570;2024-01-11T00:50:15;-3.90;99.90
3312;DHT22;1668;49.648;8.570;2024-01-11T00:52:41;-3.90;99.90
3312;DHT22;1668;49.648;8.570;2024-01-11T00:55:08;-3.90;99.90
3312;DHT22;1668;49.648;8.570;2024-01-11T00:57:35;-4.00;99.90
3312;DHT22;1668;49.648;8.570;2024-01-11T01:00:02;-4.00;1.00
3312;DHT22;1668;49.648;8.570;2024-01-11T01:02:29;-4.00;99.90
3312;DHT22;1668;49.648;8.570;2024-01-11T01:04:56;-4.00;1.00
3312;DHT22;1668;49.648;8.570;2024-01-11T01:07:25;-4.10;1.00
3312;DHT22;1668;49.648;8.570;2024-01-11T01:09:51;-4.10;1.00
3312;DHT22;1668;49.648;8.570;2024-01-11T01:12:18;-4.00;1.00
3312;DHT22;1668;49.648;8.570;2024-01-11T01:14:45;-4.10;1.00
3312;DHT22;1668;49.648;8.570;2024-01-11T01:17:12;-4.10;1.00
3312;DHT22;1668;49.648;8.570;2024-01-11T01:19:39;-4.10;1.00
3312;DHT22;1668;49.648;8.570;2024-01-11T01:22:06;-4.10;1.00
3312;DHT22;1668;49.648;8.570;2024-01-11T01:24:34;-4.20;1.00
3312;DHT22;1668;49.648;8.570;2024-01-11T01:27:01;-4.20;5.30
3312;DHT22;1668;49.648;8.570;2024-01-11T01:29:28;-4.20;1.00
3312;DHT22;1668;49.648;8.570;2024-01-11T01:31:55;-4.20;1.00
3312;DHT22;1668;49.648;8.570;2024-01-11T01:34:22;-4.20;1.00
3312;DHT22;1668;49.648;8.570;2024-01-11T01:36:49;-4.20;1.00
3312;DHT22;1668;49.648;8.570;2024-01-11T01:39:16;-4.20;1.00
3312;DHT22;1668;49.648;8.570;2024-01-11T01:41:44;-4.30;1.00
3312;DHT22;1668;49.648;8.570;2024-01-11T01:44:11;-4.30;1.00
3312;DHT22;1668;49.648;8.570;2024-01-11T01:46:38;-4.20;99.90
3312;DHT22;1668;49.648;8.570;2024-01-11T01:49:05;-4.30;99.90
3312;DHT22;1668;49.648;8.570;2024-01-11T01:51:34;-4.30;99.90
3312;DHT22;1668;49.648;8.570;2024-01-11T01:54:01;-4.20;99.90
3312;DHT22;1668;49.648;8.570;2024-01-11T01:56:29;-4.30;99.90
3312;DHT22;1668;49.648;8.570;2024-01-11T01:58:59;-4.30;99.90
3312;DHT22;1668;49.648;8.570;2024-01-11T02:01:28;-4.30;99.90
3312;DHT22;1668;49.648;8.570;2024-01-11T02:03:55;-4.30;99.90
3312;DHT22;1668;49.648;8.570;2024-01-11T02:06:25;-4.30;1.00
3312;DHT22;1668;49.648;8.570;2024-01-11T02:08:55;-4.30;99.90
3312;DHT22;1668;49.648;8.570;2024-01-11T02:11:23;-4.30;1.00
3312;DHT22;1668;49.648;8.570;2024-01-11T02:13:51;-4.30;1.00
3312;DHT22;1668;49.648;8.570;2024-01-11T02:16:19;-4.40;1.00
3312;DHT22;1668;49.648;8.570;2024-01-11T02:18:46;-4.40;1.00
3312;DHT22;1668;49.648;8.570;2024-01-11T02:21:14;-4.40;1.00
3312;DHT22;1668;49.648;8.570;2024-01-11T02:23:43;-4.40;1.00
3312;DHT22;1668;49.648;8.570;2024-01-11T02:26:14;-4.40;1.00
3312;DHT22;1668;49.648;8.570;2024-01-11T02:28:44;-4.40;1.00
3312;DHT22;1668;49.648;8.570;2024-01-11T02:31:12;-4.40;1.00
3312;DHT22;1668;49.648;8.570;2024-01-11T02:33:39;-4.40;1.00
3312;DHT22;1668;49.648;8.570;2024-01-11T02:36:06;-4.40;1.00
3312;DHT22;1668;49.648;8.570;2024-01-11T02:38:34;-4.40;1.00
3312;DHT22;1668;49.648;8.570;2024-01-11T02:41:01;-4.40;1.00
3312;DHT22;1668;49.648;8.570;2024-01-11T02:43:30;-4.50;1.00
3312;DHT22;1668;49.648;8.570;2024-01-11T02:45:56;-4.50;1.00
3312;DHT22;1668;49.648;8.570;2024-01-11T02:48:27;-4.50;1.00
3312;DHT22;1668;49.648;8.570;2024-01-11T02:50:54;-4.50;1.00
3312;DHT22;1668;49.648;8.570;2024-01-11T02:53:21;-4.50;1.00
3312;DHT22;1668;49.648;8.570;2024-01-11T02:55:49;-4.50;13.40
3312;DHT22;1668;49.648;8.570;2024-01-11T02:58:16;-4.60;1.00
3312;DHT22;1668;49.648;8.570;2024-01-11T03:00:44;-4.50;1.00
3312;DHT22;1668;49.648;8.570;2024-01-11T03:03:11;-4.60;1.00
3312;DHT22;1668;49.648;8.570;2024-01-11T03:05:38;-4.60;1.00
3312;DHT22;1668;49.648;8.570;2024-01-11T03:08:05;-4.60;1.00
3312;DHT22;1668;49.648;8.570;2024-01-11T03:10:32;-4.60;1.00
3312;DHT22;1668;49.648;8.570;2024-01-11T03:12:59;-4.60;16.50
3312;DHT22;1668;49.648;8.570;2024-01-11T03:15:26;-4.60;1.00
3312;DHT22;1668;49.648;8.570;2024-01-11T03:17:54;-4.60;6.10
3312;DHT22;1668;49.648;8.570;2024-01-11T03:20:21;-4.70;1.00
3312;DHT22;1668;49.648;8.570;2024-01-11T03:22:50;-4.60;1.00
3312;DHT22;1668;49.648;8.570;2024-01-11T03:25:18;-4.70;1.00
3312;DHT22;1668;49.648;8.570;2024-01-11T03:27:45;-4.70;99.90
3312;DHT22;1668;49.648;8.570;2024-01-11T03:30:13;-4.70;99.90
3312;DHT22;1668;49.648;8.570;2024-01-11T03:32:40;-4.70;99.90
3312;DHT22;1668;49.648;8.570;2024-01-11T03:35:09;-4.70;99.90
3312;DHT22;1668;49.648;8.570;2024-01-11T03:37:36;-4.70;1.00
3312;DHT22;1668;49.648;8.570;2024-01-11T03:40:03;-4.70;1.00
3312;DHT22;1668;49.648;8.570;2024-01-11T03:42:30;-4.70;1.00
3312;DHT22;1668;49.648;8.570;2024-01-11T03:44:57;-4.80;1.00
3312;DHT22;1668;49.648;8.570;2024-01-11T03:47:24;-4.70;99.90
3312;DHT22;1668;49.648;8.570;2024-01-11T03:49:51;-4.70;99.90
3312;DHT22;1668;49.648;8.570;2024-01-11T03:52:19;-4.80;1.00
3312;DHT22;1668;49.648;8.570;2024-01-11T03:54:46;-4.80;1.00
3312;DHT22;1668;49.648;8.570;2024-01-11T03:57:14;-4.80;99.90
3312;DHT22;1668;49.648;8.570;2024-01-11T03:59:40;-4.80;52.30
3312;DHT22;1668;49.648;8.570;2024-01-11T04:02:07;-4.80;16.70
3312;DHT22;1668;49.648;8.570;2024-01-11T04:04:34;-4.80;99.90
3312;DHT22;1668;49.648;8.570;2024-01-11T04:07:01;-4.90;99.90
3312;DHT22;1668;49.648;8.570;2024-01-11T04:09:29;-4.90;99.90
3312;DHT22;1668;49.648;8.570;2024-01-11T04:11:56;-4.90;99.90
3312;DHT22;1668;49.648;8.570;2024-01-11T04:14:23;-4.90;1.00
3312;DHT22;1668;49.648;8.570;2024-01-11T04:16:50;-4.90;1.00
3312;DHT22;1668;49.648;8.570;2024-01-11T04:19:17;-4.90;1.00
3312;DHT22;1668;49.648;8.570;2024-01-11T04:21:44;-5.00;1.00
3312;DHT22;1668;49.648;8.570;2024-01-11T04:24:11;-5.00;17.00
3312;DHT22;1668;49.648;8.570;2024-01-11T04:26:39;-5.00;1.00
3312;DHT22;1668;49.648;8.570;2024-01-11T04:29:06;-5.00;1.00
3312;DHT22;1668;49.648;8.570;2024-01-11T04:31:33;-5.00;1.00
3312;DHT22;1668;49.648;8.570;2024-01-11T04:34:00;-5.00;1.00
3312;DHT22;1668;49.648;8.570;2024-01-11T04:36:27;-5.00;1.00
3312;DHT22;1668;49.648;8.570;2024-01-11T04:38:54;-5.00;1.00
3312;DHT22;1668;49.648;8.570;2024-01-11T04:41:21;-5.00;1.00
3312;DHT22;1668;49.648;8.570;2024-01-11T04:43:49;-5.00;1.00
3312;DHT22;1668;49.648;8.570;2024-01-11T04:46:17;-5.00;1.00
3312;DHT22;1668;49.648;8.570;2024-01-11T04:48:45;-5.00;64.30
3312;DHT22;1668;49.648;8.570;2024-01-11T04:51:13;-5.00;99.90
3312;DHT22;1668;49.648;8.570;2024-01-11T04:53:40;-5.00;45.60
3312;DHT22;1668;49.648;8.570;2024-01-11T04:56:08;-5.00;1.00
3312;DHT22;1668;49.648;8.570;2024-01-11T04:58:36;-5.00;1.00
3312;DHT22;1668;49.648;8.570;2024-01-11T05:01:07;-5.00;99.90
3312;DHT22;1668;49.648;8.570;2024-01-11T05:03:38;-5.00;99.90
3312;DHT22;1668;49.648;8.570;2024-01-11T05:06:05;-5.10;44.10
3312;DHT22;1668;49.648;8.570;2024-01-11T05:08:32;-5.10;15.70
3312;DHT22;1668;49.648;8.570;2024-01-11T05:10:59;-5.10;99.90
3312;DHT22;1668;49.648;8.570;2024-01-11T05:13:26;-5.10;80.30
3312;DHT22;1668;49.648;8.570;2024-01-11T05:15:52;-5.00;99.90
3312;DHT22;1668;49.648;8.570;2024-01-11T05:18:21;-5.10;1.00
3312;DHT22;1668;49.648;8.570;2024-01-11T05:20:48;-5.10;1.00
3312;DHT22;1668;49.648;8.570;2024-01-11T05:23:15;-5.10;1.00
3312;DHT22;1668;49.648;8.570;2024-01-11T05:25:41;-5.10;1.00
3312;DHT22;1668;49.648;8.570;2024-01-11T05:28:08;-5.10;1.00
3312;DHT22;1668;49.648;8.570;2024-01-11T05:30:36;-5.10;1.00
3312;DHT22;1668;49.648;8.570;2024-01-11T05:33:03;-5.10;99.90
3312;DHT22;1668;49.648;8.570;2024-01-11T05:35:32;-5.20;99.90
3312;DHT22;1668;49.648;8.570;2024-01-11T05:37:58;-5.20;1.00
3312;DHT22;1668;49.648;8.570;2024-01-11T05:40:25;-5.20;1.00
3312;DHT22;1668;49.648;8.570;2024-01-11T05:42:52;-5.20;99.90
3312;DHT22;1668;49.648;8.570;2024-01-11T05:45:19;-5.20;1.00
3312;DHT22;1668;49.648;8.570;2024-01-11T05:47:46;-5.20;1.00
3312;DHT22;1668;49.648;8.570;2024-01-11T05:50:13;-5.20;1.00
3312;DHT22;1668;49.648;8.570;2024-01-11T05:52:42;-5.20;1.00
3312;DHT22;1668;49.648;8.570;2024-01-11T05:55:09;-5.20;99.90
3312;DHT22;1668;49.648;8.570;2024-01-11T05:57:36;-5.20;99.90
3312;DHT22;1668;49.648;8.570;2024-01-11T06:00:04;-5.20;99.90
3312;DHT22;1668;49.648;8.570;2024-01-11T06:02:31;-5.20;99.90
3312;DHT22;1668;49.648;8.570;2024-01-11T06:04:59;-5.20;99.90
3312;DHT22;1668;49.648;8.570;2024-01-11T06:07:26;-5.20;99.90
3312;DHT22;1668;49.648;8.570;2024-01-11T06:09:55;-5.20;99.90
3312;DHT22;1668;49.648;8.570;2024-01-11T06:12:22;-5.20;99.90
3312;DHT22;1668;49.648;8.570;2024-01-11T06:14:49;-5.20;1.00
3312;DHT22;1668;49.648;8.570;2024-01-11T06:17:15;-5.30;1.00
3312;DHT22;1668;49.648;8.570;2024-01-11T06:19:42;-5.20;1.00
3312;DHT22;1668;49.648;8.570;2024-01-11T06:22:09;-5.30;1.00
3312;DHT22;1668;49.648;8.570;2024-01-11T06:24:36;-5.20;99.90
3312;DHT22;1668;49.648;8.570;2024-01-11T06:27:04;-5.30;99.90
3312;DHT22;1668;49.648;8.570;2024-01-11T06:29:31;-5.30;99.90
3312;DHT22;1668;49.648;8.570;2024-01-11T06:31:58;-5.30;1.00
3312;DHT22;1668;49.648;8.570;2024-01-11T06:34:25;-5.30;1.00
3312;DHT22;1668;49.648;8.570;2024-01-11T06:36:54;-5.30;1.00
3312;DHT22;1668;49.648;8.570;2024-01-11T06:39:21;-5.30;1.00
3312;DHT22;1668;49.648;8.570;2024-01-11T06:41:47;-5.30;1.00
3312;DHT22;1668;49.648;8.570;2024-01-11T06:44:16;-5.40;29.20
3312;DHT22;1668;49.648;8.570;2024-01-11T06:46:43;-5.40;99.90
3312;DHT22;1668;49.648;8.570;2024-01-11T06:49:10;-5.40;99.90
3312;DHT22;1668;49.648;8.570;2024-01-11T06:51:37;-5.40;99.90
3312;DHT22;1668;49.648;8.570;2024-01-11T06:54:04;-5.40;99.90
3312;DHT22;1668;49.648;8.570;2024-01-11T06:56:31;-5.40;99.90
3312;DHT22;1668;49.648;8.570;2024-01-11T06:58:58;-5.40;1.00
3312;DHT22;1668;49.648;8.570;2024-01-11T07:01:26;-5.40;1.00
3312;DHT22;1668;49.648;8.570;2024-01-11T07:03:54;-5.40;1.00
3312;DHT22;1668;49.648;8.570;2024-01-11T07:06:21;-5.40;1.00
3312;DHT22;1668;49.648;8.570;2024-01-11T07:08:48;-5.40;99.90
3312;DHT22;1668;49.648;8.570;2024-01-11T07:11:15;-5.40;99.90
3312;DHT22;1668;49.648;8.570;2024-01-11T07:13:42;-5.40;99.90
3312;DHT22;1668;49.648;8.570;2024-01-11T07:16:09;-5.40;99.90
3312;DHT22;1668;49.648;8.570;2024-01-11T07:18:37;-5.40;99.90
3312;DHT22;1668;49.648;8.570;2024-01-11T07:21:04;-5.40;99.90
3312;DHT22;1668;49.648;8.570;2024-01-11T07:23:31;-5.40;99.90
3312;DHT22;1668;49.648;8.570;2024-01-11T07:25:58;-5.40;99.90
3312;DHT22;1668;49.648;8.570;2024-01-11T07:28:25;-5.40;1.00
3312;DHT22;1668;49.648;8.570;2024-01-11T07:30:52;-5.40;1.00
3312;DHT22;1668;49.648;8.570;2024-01-11T07:33:19;-5.40;1.00
3312;DHT22;1668;49.648;8.570;2024-01-11T07:35:47;-5.40;1.00
3312;DHT22;1668;49.648;8.570;2024-01-11T07:38:14;-5.40;1.00
3312;DHT22;1668;49.648;8.570;2024-01-11T07:40:41;-5.40;99.90
3312;DHT22;1668;49.648;8.570;2024-01-11T07:43:09;-5.40;99.90
3312;DHT22;1668;49.648;8.570;2024-01-11T07:45:35;-5.40;99.90
3312;DHT22;1668;49.648;8.570;2024-01-11T07:48:03;-5.40;99.90
3312;DHT22;1668;49.648;8.570;2024-01-11T07:50:30;-5.40;1.00
3312;DHT22;1668;49.648;8.570;2024-01-11T07:52:59;-5.40;99.90
3312;DHT22;1668;49.648;8.570;2024-01-11T07:55:26;-5.30;99.90
3312;DHT22;1668;49.648;8.570;2024-01-11T07:57:53;-5.30;47.90
3312;DHT22;1668;49.648;8.570;2024-01-11T08:00:21;-5.30;1.00
3312;DHT22;1668;49.648;8.570;2024-01-11T08:02:49;-5.30;1.00
3312;DHT22;1668;49.648;8.570;2024-01-11T08:05:16;-5.30;1.00
3312;DHT22;1668;49.648;8.570;2024-01-11T08:07:43;-5.30;1.00
3312;DHT22;1668;49.648;8.570;2024-01-11T08:10:11;-5.30;1.00
3312;DHT22;1668;49.648;8.570;2024-01-11T08:12:38;-5.30;1.00
3312;DHT22;1668;49.648;8.570;2024-01-11T08:15:05;-5.20;1.00
3312;DHT22;1668;49.648;8.570;2024-01-11T08:17:36;-5.20;99.90
3312;DHT22;1668;49.648;8.570;2024-01-11T08:20:04;-5.20;99.90
3312;DHT22;1668;49.648;8.570;2024-01-11T08:22:33;-5.20;78.00
3312;DHT22;1668;49.648;8.570;2024-01-11T08:25:01;-5.20;1.00
3312;DHT22;1668;49.648;8.570;2024-01-11T08:27:31;-5.10;1.00
3312;DHT22;1668;49.648;8.570;2024-01-11T08:29:58;-5.10;1.00
3312;DHT22;1668;49.648;8.570;2024-01-11T08:32:26;-5.10;1.00
3312;DHT22;1668;49.648;8.570;2024-01-11T08:34:54;-5.10;1.00
3312;DHT22;1668;49.648;8.570;2024-01-11T08:37:21;-5.10;1.00
3312;DHT22;1668;49.648;8.570;2024-01-11T08:39:48;-5.10;1.00
3312;DHT22;1668;49.648;8.570;2024-01-11T08:42:15;-5.00;1.00
3312;DHT22;1668;49.648;8.570;2024-01-11T08:44:45;-5.00;1.00
3312;DHT22;1668;49.648;8.570;2024-01-11T08:47:13;-5.00;1.00
3312;DHT22;1668;49.648;8.570;2024-01-11T08:49:40;-5.00;99.90
3312;DHT22;1668;49.648;8.570;2024-01-11T08:52:07;-5.00;99.90
3312;DHT22;1668;49.648;8.570;2024-01-11T08:54:34;-4.90;1.00
3312;DHT22;1668;49.648;8.570;2024-01-11T08:57:02;-4.90;1.00
3312;DHT22;1668;49.648;8.570;2024-01-11T08:59:29;-4.80;1.00
3312;DHT22;1668;49.648;8.570;2024-01-11T09:01:57;-4.80;1.00
3312;DHT22;1668;49.648;8.570;2024-01-11T09:04:24;-4.80;99.90
3312;DHT22;1668;49.648;8.570;2024-01-11T09:06:54;-4.80;79.20
3312;DHT22;1668;49.648;8.570;2024-01-11T09:09:21;-4.70;99.90
3312;DHT22;1668;49.648;8.570;2024-01-11T09:11:48;-4.70;1.00
3312;DHT22;1668;49.648;8.570;2024-01-11T09:14:15;-4.60;99.70
3312;DHT22;1668;49.648;8.570;2024-01-11T09:16:42;-4.50;88.10
3312;DHT22;1668;49.648;8.570;2024-01-11T09:19:12;-4.50;6.30
3312;DHT22;1668;49.648;8.570;2024-01-11T09:21:39;-4.40;1.00
3312;DHT22;1668;49.648;8.570;2024-01-11T09:24:07;-4.30;1.00
3312;DHT22;1668;49.648;8.570;2024-01-11T09:26:34;-4.30;1.00
3312;DHT22;1668;49.648;8.570;2024-01-11T09:29:02;-4.30;1.00
3312;DHT22;1668;49.648;8.570;2024-01-11T09:31:29;-4.20;1.00
3312;DHT22;1668;49.648;8.570;2024-01-11T09:33:56;-4.20;1.00
3312;DHT22;1668;49.648;8.570;2024-01-11T09:36:25;-4.10;1.00
3312;DHT22;1668;49.648;8.570;2024-01-11T09:38:52;-4.10;99.90
3312;DHT22;1668;49.648;8.570;2024-01-11T09:41:19;-4.00;99.90
3312;DHT22;1668;49.648;8.570;2024-01-11T09:43:49;-3.90;1.00
3312;DHT22;1668;49.648;8.570;2024-01-11T09:46:18;-3.90;1.00
3312;DHT22;1668;49.648;8.570;2024-01-11T09:48:47;-3.80;1.00
3312;DHT22;1668;49.648;8.570;2024-01-11T09:51:15;-3.80;99.90
3312;DHT22;1668;49.648;8.570;2024-01-11T09:53:44;-3.70;99.90
3312;DHT22;1668;49.648;8.570;2024-01-11T09:56:11;-3.60;99.90
3312;DHT22;1668;49.648;8.570;2024-01-11T09:58:40;-3.60;99.90
3312;DHT22;1668;49.648;8.570;2024-01-11T10:01:09;-3.50;10.50
3312;DHT22;1668;49.648;8.570;2024-01-11T10:03:39;-3.50;1.00
3312;DHT22;1668;49.648;8.570;2024-01-11T10:06:07;-3.40;99.90
3312;DHT22;1668;49.648;8.570;2024-01-11T10:08:36;-3.40;99.90
3312;DHT22;1668;49.648;8.570;2024-01-11T10:11:04;-3.40;99.90
3312;DHT22;1668;49.648;8.570;2024-01-11T10:13:32;-3.30;99.90
3312;DHT22;1668;49.648;8.570;2024-01-11T10:16:08;-3.30;1.00
3312;DHT22;1668;49.648;8.570;2024-01-11T10:18:35;-3.30;99.90
3312;DHT22;1668;49.648;8.570;2024-01-11T10:21:03;-3.30;99.90
3312;DHT22;1668;49.648;8.570;2024-01-11T10:23:33;-3.20;99.90
3312;DHT22;1668;49.648;8.570;2024-01-11T10:26:01;-3.20;31.00
3312;DHT22;1668;49.648;8.570;2024-01-11T10:28:30;-3.20;1.00
3312;DHT22;1668;49.648;8.570;2024-01-11T10:30:58;-3.10;1.00
3312;DHT22;1668;49.648;8.570;2024-01-11T10:33:25;-3.00;1.00
3312;DHT22;1668;49.648;8.570;2024-01-11T10:35:52;-2.80;1.00
3312;DHT22;1668;49.648;8.570;2024-01-11T10:38:21;-2.70;1.00
3312;DHT22;1668;49.648;8.570;2024-01-11T10:40:49;-2.50;1.00
3312;DHT22;1668;49.648;8.570;2024-01-11T10:43:21;-2.40;1.00
3312;DHT22;1668;49.648;8.570;2024-01-11T10:45:50;-2.30;1.00
3312;DHT22;1668;49.648;8.570;2024-01-11T10:48:21;-2.20;1.00
3312;DHT22;1668;49.648;8.570;2024-01-11T10:50:52;-2.10;99.90
3312;DHT22;1668;49.648;8.570;2024-01-11T10:53:31;-2.10;99.90
3312;DHT22;1668;49.648;8.570;2024-01-11T10:56:03;-2.10;99.90
3312;DHT22;1668;49.648;8.570;2024-01-11T10:58:33;-2.00;99.90
3312;DHT22;1668;49.648;8.570;2024-01-11T11:01:02;-2.00;99.90
3312;DHT22;1668;49.648;8.570;2024-01-11T11:03:31;-2.00;99.90
3312;DHT22;1668;49.648;8.570;2024-01-11T11:06:00;-1.90;99.90
3312;DHT22;1668;49.648;8.570;2024-01-11T11:08:27;-1.90;99.90
3312;DHT22;1668;49.648;8.570;2024-01-11T11:10:55;-1.80;99.90
3312;DHT22;1668;49.648;8.570;2024-01-11T11:13:23;-1.70;99.90
3312;DHT22;1668;49.648;8.570;2024-01-11T11:15:51;-1.70;99.90
3312;DHT22;1668;49.648;8.570;2024-01-11T11:18:20;-1.60;99.90
3312;DHT22;1668;49.648;8.570;2024-01-11T11:20:47;-1.50;84.80
3312;DHT22;1668;49.648;8.570;2024-01-11T11:23:18;-1.50;99.90
3312;DHT22;1668;49.648;8.570;2024-01-11T11:25:47;-1.40;99.90
3312;DHT22;1668;49.648;8.570;2024-01-11T11:28:16;-1.30;38.80
3312;DHT22;1668;49.648;8.570;2024-01-11T11:30:45;-1.30;17.50
3312;DHT22;1668;49.648;8.570;2024-01-11T11:33:17;-1.20;8.80
3312;DHT22;1668;49.648;8.570;2024-01-11T11:35:46;-1.10;1.00
3312;DHT22;1668;49.648;8.570;2024-01-11T11:38:23;-1.10;1.00
3312;DHT22;1668;49.648;8.570;2024-01-11T11:40:52;-1.00;1.00
3312;DHT22;1668;49.648;8.570;2024-01-11T11:43:20;-0.90;1.00
3312;DHT22;1668;49.648;8.570;2024-01-11T11:45:49;-0.80;1.00
3312;DHT22;1668;49.648;8.570;2024-01-11T11:48:49;-0.70;1.00
3312;DHT22;1668;49.648;8.570;2024-01-11T11:51:19;-0.60;1.00
3312;DHT22;1668;49.648;8.570;2024-01-11T11:53:47;-0.50;1.00
3312;DHT22;1668;49.648;8.570;2024-01-11T11:56:16;-0.40;1.00
3312;DHT22;1668;49.648;8.570;2024-01-11T11:58:45;-0.40;1.00
3312;DHT22;1668;49.648;8.570;2024-01-11T12:01:15;-0.30;1.00
3312;DHT22;1668;49.648;8.570;2024-01-11T12:03:43;-0.20;1.00
3312;DHT22;1668;49.648;8.570;2024-01-11T12:06:15;-0.10;1.00
3312;DHT22;1668;49.648;8.570;2024-01-11T12:08:44;0.00;1.00
3312;DHT22;1668;49.648;8.570;2024-01-11T12:11:15;0.10;1.00
3312;DHT22;1668;49.648;8.570;2024-01-11T12:13:44;0.20;1.00
3312;DHT22;1668;49.648;8.570;2024-01-11T12:16:11;0.40;1.00
3312;DHT22;1668;49.648;8.570;2024-01-11T12:18:42;0.40;1.00
3312;DHT22;1668;49.648;8.570;2024-01-11T12:21:09;0.50;1.00
3312;DHT22;1668;49.648;8.570;2024-01-11T12:23:38;0.60;1.00
3312;DHT22;1668;49.648;8.570;2024-01-11T12:26:15;0.60;1.00
3312;DHT22;1668;49.648;8.570;2024-01-11T12:28:47;0.80;1.00
3312;DHT22;1668;49.648;8.570;2024-01-11T12:31:16;0.90;1.00
3312;DHT22;1668;49.648;8.570;2024-01-11T12:33:45;1.10;1.00
3312;DHT22;1668;49.648;8.570;2024-01-11T12:36:12;1.10;1.00
3312;DHT22;1668;49.648;8.570;2024-01-11T12:38:46;1.20;1.00
3312;DHT22;1668;49.648;8.570;2024-01-11T12:41:16;1.30;1.00
3312;DHT22;1668;49.648;8.570;2024-01-11T12:43:43;1.30;1.00
3312;DHT22;1668;49.648;8.570;2024-01-11T12:46:10;1.40;1.00
3312;DHT22;1668;49.648;8.570;2024-01-11T12:48:38;1.50;1.00
3312;DHT22;1668;49.648;8.570;2024-01-11T12:51:05;1.60;1.00
3312;DHT22;1668;49.648;8.570;2024-01-11T12:53:32;1.70;1.00
3312;DHT22;1668;49.648;8.570;2024-01-11T12:56:03;1.70;1.00
3312;DHT22;1668;49.648;8.570;2024-01-11T12:58:35;1.80;1.00
3312;DHT22;1668;49.648;8.570;2024-01-11T13:01:02;1.80;1.00
3312;DHT22;1668;49.648;8.570;2024-01-11T13:03:29;1.80;1.00
3312;DHT22;1668;49.648;8.570;2024-01-11T13:05:57;2.00;1.00
3312;DHT22;1668;49.648;8.570;2024-01-11T13:08:24;1.90;1.00
3312;DHT22;1668;49.648;8.570;2024-01-11T13:10:52;2.00;1.00
3312;DHT22;1668;49.648;8.570;2024-01-11T13:13:19;2.10;1.00
3312;DHT22;1668;49.648;8.570;2024-01-11T13:15:48;2.20;1.00
3312;DHT22;1668;49.648;8.570;2024-01-11T13:18:16;2.30;1.00
3312;DHT22;1668;49.648;8.570;2024-01-11T13:20:43;2.30;1.00
3312;DHT22;1668;49.648;8.570;2024-01-11T13:23:13;2.20;1.00
3312;DHT22;1668;49.648;8.570;2024-01-11T13:25:41;2.20;1.00
3312;DHT22;1668;49.648;8.570;2024-01-11T13:28:08;2.10;1.00
3312;DHT22;1668;49.648;8.570;2024-01-11T13:30:37;2.10;1.00
3312;DHT22;1668;49.648;8.570;2024-01-11T13:33:06;2.00;1.00
3312;DHT22;1668;49.648;8.570;2024-01-11T13:35:34;1.80;1.00
3312;DHT22;1668;49.648;8.570;2024-01-11T13:38:02;1.80;1.00
3312;DHT22;1668;49.648;8.570;2024-01-11T13:40:29;1.80;1.00
3312;DHT22;1668;49.648;8.570;2024-01-11T13:42:57;1.70;1.00
3312;DHT22;1668;49.648;8.570;2024-01-11T13:45:25;1.60;1.00
3312;DHT22;1668;49.648;8.570;2024-01-11T13:47:52;1.50;1.00
3312;DHT22;1668;49.648;8.570;2024-01-11T13:50:22;1.50;1.00
3312;DHT22;1668;49.648;8.570;2024-01-11T13:52:50;1.50;1.00
3312;DHT22;1668;49.648;8.570;2024-01-11T13:55:17;1.50;1.00
3312;DHT22;1668;49.648;8.570;2024-01-11T13:57:45;1.40;1.00
3312;DHT22;1668;49.648;8.570;2024-01-11T14:00:13;1.40;1.00
3312;DHT22;1668;49.648;8.570;2024-01-11T14:02:40;1.40;1.00
3312;DHT22;1668;49.648;8.570;2024-01-11T14:05:07;1.30;1.00
3312;DHT22;1668;49.648;8.570;2024-01-11T14:07:39;1.30;1.00
3312;DHT22;1668;49.648;8.570;2024-01-11T14:10:07;1.30;1.00
3312;DHT22;1668;49.648;8.570;2024-01-11T14:12:35;1.30;1.00
3312;DHT22;1668;49.648;8.570;2024-01-11T14:15:03;1.20;1.00
3312;DHT22;1668;49.648;8.570;2024-01-11T14:17:30;1.20;1.00
3312;DHT22;1668;49.648;8.570;2024-01-11T14:19:57;1.20;1.00
3312;DHT22;1668;49.648;8.570;2024-01-11T14:22:24;1.20;1.00
3312;DHT22;1668;49.648;8.570;2024-01-11T14:24:52;1.10;1.00
3312;DHT22;1668;49.648;8.570;2024-01-11T14:27:20;1.10;1.00
3312;DHT22;1668;49.648;8.570;2024-01-11T14:29:47;1.10;1.00
3312;DHT22;1668;49.648;8.570;2024-01-11T14:32:14;1.10;1.00
3312;DHT22;1668;49.648;8.570;2024-01-11T14:34:42;1.10;1.00
3312;DHT22;1668;49.648;8.570;2024-01-11T14:37:10;1.00;1.00
3312;DHT22;1668;49.648;8.570;2024-01-11T14:39:37;1.00;1.00
3312;DHT22;1668;49.648;8.570;2024-01-11T14:42:06;1.00;1.00
3312;DHT22;1668;49.648;8.570;2024-01-11T14:44:34;1.00;1.00
3312;DHT22;1668;49.648;8.570;2024-01-11T14:47:01;1.00;1.00
3312;DHT22;1668;49.648;8.570;2024-01-11T14:49:29;0.90;1.00
3312;DHT22;1668;49.648;8.570;2024-01-11T14:51:56;0.90;1.00
3312;DHT22;1668;49.648;8.570;2024-01-11T14:54:23;0.90;1.00
3312;DHT22;1668;49.648;8.570;2024-01-11T14:56:50;0.90;1.00
3312;DHT22;1668;49.648;8.570;2024-01-11T14:59:18;0.80;1.00
3312;DHT22;1668;49.648;8.570;2024-01-11T15:01:46;0.80;1.00
3312;DHT22;1668;49.648;8.570;2024-01-11T15:04:13;0.80;1.00
3312;DHT22;1668;49.648;8.570;2024-01-11T15:06:40;0.80;1.00
3312;DHT22;1668;49.648;8.570;2024-01-11T15:09:06;0.80;1.00
3312;DHT22;1668;49.648;8.570;2024-01-11T15:11:37;0.70;1.00
3312;DHT22;1668;49.648;8.570;2024-01-11T15:14:05;0.70;1.00
3312;DHT22;1668;49.648;8.570;2024-01-11T15:16:33;0.70;1.00
3312;DHT22;1668;49.648;8.570;2024-01-11T15:19:00;0.60;1.00
3312;DHT22;1668;49.648;8.570;2024-01-11T15:21:27;0.60;1.00
3312;DHT22;1668;49.648;8.570;2024-01-11T15:23:54;0.60;1.00
3312;DHT22;1668;49.648;8.570;2024-01-11T15:26:21;0.60;1.00
3312;DHT22;1668;49.648;8.570;2024-01-11T15:28:48;0.50;1.00
3312;DHT22;1668;49.648;8.570;2024-01-11T15:31:15;0.50;1.00
3312;DHT22;1668;49.648;8.570;2024-01-11T15:33:44;0.50;1.00
3312;DHT22;1668;49.648;8.570;2024-01-11T15:36:11;0.40;1.00
3312;DHT22;1668;49.648;8.570;2024-01-11T15:38:38;0.40;1.00
3312;DHT22;1668;49.648;8.570;2024-01-11T15:41:05;0.40;1.00
3312;DHT22;1668;49.648;8.570;2024-01-11T15:43:32;0.30;1.00
3312;DHT22;1668;49.648;8.570;2024-01-11T15:45:59;0.30;1.00
3312;DHT22;1668;49.648;8.570;2024-01-11T15:48:26;0.30;1.00
3312;DHT22;1668;49.648;8.570;2024-01-11T15:50:55;0.30;1.00
3312;DHT22;1668;49.648;8.570;2024-01-11T15:53:22;0.20;1.00
3312;DHT22;1668;49.648;8.570;2024-01-11T15:55:49;0.20;1.00
3312;DHT22;1668;49.648;8.570;2024-01-11T15:58:16;0.20;1.00
3312;DHT22;1668;49.648;8.570;2024-01-11T16:00:43;0.10;1.00
3312;DHT22;1668;49.648;8.570;2024-01-11T16:03:10;0.10;1.00
3312;DHT22;1668;49.648;8.570;2024-01-11T16:05:37;0.10;1.00
3312;DHT22;1668;49.648;8.570;2024-01-11T16:08:06;0.00;1.00
3312;DHT22;1668;49.648;8.570;2024-01-11T16:10:33;0.00;1.00
3312;DHT22;1668;49.648;8.570;2024-01-11T16:12:59;0.00;1.00
3312;DHT22;1668;49.648;8.570;2024-01-11T16:15:27;0.00;1.00
3312;DHT22;1668;49.648;8.570;2024-01-11T16:17:54;0.00;1.00
3312;DHT22;1668;49.648;8.570;2024-01-11T16:20:21;-0.10;1.00